sensor_id;sensor_type;location;lat;lon;timestamp;P1;durP1;ratioP1;P2;durP2;ratioP2
80854;SDS011;70272;49.222;-122.892;2023-12-29T00:02:04;2.72;;;1.58;;
80854;SDS011;70272;49.222;-122.892;2023-12-29T00:04:30;1.45;;;1.33;;
80854;SDS011;70272;49.222;-122.892;2023-12-29T00:06:56;1.65;;;1.40;;
80854;SDS011;70272;49.222;-122.892;2023-12-29T00:09:22;1.98;;;1.40;;
80854;SDS011;70272;49.222;-122.892;2023-12-29T00:11:51;3.67;;;1.50;;
80854;SDS011;70272;49.222;-122.892;2023-12-29T00:14:19;2.28;;;1.00;;
80854;SDS011;70272;49.222;-122.892;2023-12-29T00:16:46;1.20;;;1.10;;
80854;SDS011;70272;49.222;-122.892;2023-12-29T00:19:12;1.20;;;1.10;;
80854;SDS011;70272;49.222;-122.892;2023-12-29T00:21:38;1.20;;;1.10;;
80854;SDS011;70272;49.222;-122.892;2023-12-29T00:24:05;1.55;;;1.20;;
80854;SDS011;70272;49.222;-122.892;2023-12-29T00:26:31;1.77;;;1.00;;
80854;SDS011;70272;49.222;-122.892;2023-12-29T00:28:57;1.30;;;1.02;;
80854;SDS011;70272;49.222;-122.892;2023-12-29T00:31:24;1.67;;;1.17;;
80854;SDS011;70272;49.222;-122.892;2023-12-29T00:33:50;2.15;;;1.20;;
80854;SDS011;70272;49.222;-122.892;2023-12-29T00:36:18;2.38;;;1.58;;
80854;SDS011;70272;49.222;-122.892;2023-12-29T00:38:47;2.58;;;1.17;;
80854;SDS011;70272;49.222;-122.892;2023-12-29T00:41:13;1.73;;;1.05;;
80854;SDS011;70272;49.222;-122.892;2023-12-29T00:43:39;1.60;;;1.00;;
80854;SDS011;70272;49.222;-122.892;2023-12-29T00:46:06;0.93;;;0.93;;
80854;SDS011;70272;49.222;-122.892;2023-12-29T00:48:34;0.90;;;0.90;;
80854;SDS011;70272;49.222;-122.892;2023-12-29T00:51:01;2.38;;;1.40;;
80854;SDS011;70272;49.222;-122.892;2023-12-29T00:53:28;1.85;;;0.95;;
80854;SDS011;70272;49.222;-122.892;2023-12-29T00:55:59;0.90;;;0.90;;
80854;SDS011;70272;49.222;-122.892;2023-12-29T00:58:25;0.70;;;0.57;;
80854;SDS011;70272;49.222;-122.892;2023-12-29T01:00:52;1.35;;;0.98;;
80854;SDS011;70272;49.222;-122.892;2023-12-29T01:03:18;1.20;;;1.10;;
80854;SDS011;70272;49.222;-122.892;2023-12-29T01:05:45;2.20;;;1.40;;
80854;SDS011;70272;49.222;-122.892;2023-12-29T01:08:12;2.05;;;1.30;;
80854;SDS011;70272;49.222;-122.892;2023-12-29T01:10:38;1.63;;;1.45;;
80854;SDS011;70272;49.222;-122.892;2023-12-29T01:13:04;2.60;;;1.23;;
80854;SDS011;70272;49.222;-122.892;2023-12-29T01:15:31;2.90;;;1.70;;
80854;SDS011;70272;49.222;-122.892;2023-12-29T01:17:57;2.40;;;1.35;;
80854;SDS011;70272;49.222;-122.892;2023-12-29T01:20:23;5.03;;;1.85;;
80854;SDS011;70272;49.222;-122.892;2023-12-29T01:22:49;2.53;;;1.27;;
80854;SDS011;70272;49.222;-122.892;2023-12-29T01:25:16;2.17;;;1.40;;
80854;SDS011;70272;49.222;-122.892;2023-12-29T01:27:42;1.55;;;1.30;;
80854;SDS011;70272;49.222;-122.892;2023-12-29T01:30:08;1.92;;;1.30;;
80854;SDS011;70272;49.222;-122.892;2023-12-29T01:32:35;1.73;;;1.27;;
80854;SDS011;70272;49.222;-122.892;2023-12-29T01:35:02;2.53;;;2.00;;
80854;SDS011;70272;49.222;-122.892;2023-12-29T01:37:29;1.02;;;0.82;;
80854;SDS011;70272;49.222;-122.892;2023-12-29T01:39:55;1.40;;;1.08;;
80854;SDS011;70272;49.222;-122.892;2023-12-29T01:42:21;1.25;;;1.13;;
80854;SDS011;70272;49.222;-122.892;2023-12-29T01:44:47;1.55;;;1.45;;
80854;SDS011;70272;49.222;-122.892;2023-12-29T01:47:19;2.10;;;1.50;;
80854;SDS011;70272;49.222;-122.892;2023-12-29T01:49:46;1.95;;;1.17;;
80854;SDS011;70272;49.222;-122.892;2023-12-29T01:52:16;3.67;;;1.60;;
80854;SDS011;70272;49.222;-122.892;2023-12-29T01:54:43;1.60;;;1.30;;
80854;SDS011;70272;49.222;-122.892;2023-12-29T01:57:10;2.15;;;1.20;;
80854;SDS011;70272;49.222;-122.892;2023-12-29T01:59:36;1.10;;;1.00;;
80854;SDS011;70272;49.222;-122.892;2023-12-29T02:02:06;1.33;;;1.13;;
80854;SDS011;70272;49.222;-122.892;2023-12-29T02:04:32;1.48;;;1.00;;
80854;SDS011;70272;49.222;-122.892;2023-12-29T02:06:59;1.73;;;1.00;;
80854;SDS011;70272;49.222;-122.892;2023-12-29T02:09:25;1.00;;;1.00;;
80854;SDS011;70272;49.222;-122.892;2023-12-29T02:11:52;1.02;;;0.93;;
80854;SDS011;70272;49.222;-122.892;2023-12-29T02:14:19;1.35;;;1.20;;
80854;SDS011;70272;49.222;-122.892;2023-12-29T02:19:40;2.40;;;0.88;;
80854;SDS011;70272;49.222;-122.892;2023-12-29T02:22:08;1.30;;;1.15;;
80854;SDS011;70272;49.222;-122.892;2023-12-29T02:24:35;2.10;;;1.00;;
80854;SDS011;70272;49.222;-122.892;2023-12-29T02:27:12;1.67;;;1.27;;
80854;SDS011;70272;49.222;-122.892;2023-12-29T02:30:08;2.78;;;1.65;;
80854;SDS011;70272;49.222;-122.892;2023-12-29T02:32:47;1.70;;;1.02;;
80854;SDS011;70272;49.222;-122.892;2023-12-29T02:35:18;5.03;;;2.08;;
80854;SDS011;70272;49.222;-122.892;2023-12-29T02:37:47;1.17;;;1.13;;
80854;SDS011;70272;49.222;-122.892;2023-12-29T02:40:14;1.15;;;1.05;;
80854;SDS011;70272;49.222;-122.892;2023-12-29T02:42:45;2.92;;;1.02;;
80854;SDS011;70272;49.222;-122.892;2023-12-29T02:45:13;5.43;;;1.20;;
80854;SDS011;70272;49.222;-122.892;2023-12-29T02:47:40;1.40;;;1.00;;
80854;SDS011;70272;49.222;-122.892;2023-12-29T02:50:08;1.98;;;1.13;;
80854;SDS011;70272;49.222;-122.892;2023-12-29T02:52:35;2.28;;;1.45;;
80854;SDS011;70272;49.222;-122.892;2023-12-29T02:55:01;4.05;;;2.15;;
80854;SDS011;70272;49.222;-122.892;2023-12-29T02:57:28;3.03;;;1.60;;
80854;SDS011;70272;49.222;-122.892;2023-12-29T02:59:55;1.38;;;1.27;;
80854;SDS011;70272;49.222;-122.892;2023-12-29T03:02:22;1.27;;;1.17;;
80854;SDS011;70272;49.222;-122.892;2023-12-29T03:04:49;3.25;;;1.67;;
80854;SDS011;70272;49.222;-122.892;2023-12-29T03:07:15;2.08;;;1.23;;
80854;SDS011;70272;49.222;-122.892;2023-12-29T03:09:41;2.30;;;1.50;;
80854;SDS011;70272;49.222;-122.892;2023-12-29T03:12:08;1.52;;;1.20;;
80854;SDS011;70272;49.222;-122.892;2023-12-29T03:14:34;1.92;;;1.30;;
80854;SDS011;70272;49.222;-122.892;2023-12-29T03:17:01;1.60;;;1.30;;
80854;SDS011;70272;49.222;-122.892;2023-12-29T03:19:27;1.10;;;1.05;;
80854;SDS011;70272;49.222;-122.892;2023-12-29T03:21:53;4.97;;;1.27;;
80854;SDS011;70272;49.222;-122.892;2023-12-29T03:24:20;1.83;;;1.30;;
80854;SDS011;70272;49.222;-122.892;2023-12-29T03:26:46;1.45;;;1.20;;
80854;SDS011;70272;49.222;-122.892;2023-12-29T03:29:13;2.90;;;1.25;;
80854;SDS011;70272;49.222;-122.892;2023-12-29T03:31:39;1.55;;;1.20;;
80854;SDS011;70272;49.222;-122.892;2023-12-29T03:34:05;2.67;;;1.20;;
80854;SDS011;70272;49.222;-122.892;2023-12-29T03:36:32;3.08;;;1.42;;
80854;SDS011;70272;49.222;-122.892;2023-12-29T03:38:58;1.30;;;1.10;;
80854;SDS011;70272;49.222;-122.892;2023-12-29T03:41:24;4.18;;;1.40;;
80854;SDS011;70272;49.222;-122.892;2023-12-29T03:43:51;4.22;;;1.20;;
80854;SDS011;70272;49.222;-122.892;2023-12-29T03:46:18;1.50;;;1.08;;
80854;SDS011;70272;49.222;-122.892;2023-12-29T03:48:45;1.20;;;1.10;;
80854;SDS011;70272;49.222;-122.892;2023-12-29T03:51:11;2.17;;;1.17;;
80854;SDS011;70272;49.222;-122.892;2023-12-29T03:53:37;1.70;;;1.00;;
80854;SDS011;70272;49.222;-122.892;2023-12-29T03:56:07;2.10;;;1.13;;
80854;SDS011;70272;49.222;-122.892;2023-12-29T03:58:34;3.42;;;1.52;;
80854;SDS011;70272;49.222;-122.892;2023-12-29T04:01:01;3.10;;;1.27;;
80854;SDS011;70272;49.222;-122.892;2023-12-29T04:03:27;1.67;;;1.30;;
80854;SDS011;70272;49.222;-122.892;2023-12-29T04:05:54;2.03;;;1.30;;
80854;SDS011;70272;49.222;-122.892;2023-12-29T04:08:20;2.58;;;1.38;;
80854;SDS011;70272;49.222;-122.892;2023-12-29T04:10:46;2.72;;;1.30;;
80854;SDS011;70272;49.222;-122.892;2023-12-29T04:13:13;1.80;;;1.23;;
80854;SDS011;70272;49.222;-122.892;2023-12-29T04:15:39;1.15;;;1.00;;
80854;SDS011;70272;49.222;-122.892;2023-12-29T04:18:06;2.75;;;1.35;;
80854;SDS011;70272;49.222;-122.892;2023-12-29T04:20:32;1.95;;;1.33;;
80854;SDS011;70272;49.222;-122.892;2023-12-29T04:22:58;3.08;;;1.30;;
80854;SDS011;70272;49.222;-122.892;2023-12-29T04:25:24;1.67;;;1.23;;
80854;SDS011;70272;49.222;-122.892;2023-12-29T04:27:51;1.40;;;1.30;;
80854;SDS011;70272;49.222;-122.892;2023-12-29T04:30:17;2.50;;;1.30;;
80854;SDS011;70272;49.222;-122.892;2023-12-29T04:32:43;3.38;;;1.52;;
80854;SDS011;70272;49.222;-122.892;2023-12-29T04:35:10;3.20;;;1.80;;
80854;SDS011;70272;49.222;-122.892;2023-12-29T04:37:38;4.32;;;1.55;;
80854;SDS011;70272;49.222;-122.892;2023-12-29T04:40:04;2.35;;;1.67;;
80854;SDS011;70272;49.222;-122.892;2023-12-29T04:42:31;3.53;;;1.73;;
80854;SDS011;70272;49.222;-122.892;2023-12-29T04:44:58;4.63;;;1.50;;
80854;SDS011;70272;49.222;-122.892;2023-12-29T04:47:24;2.47;;;1.33;;
80854;SDS011;70272;49.222;-122.892;2023-12-29T04:49:50;3.33;;;1.50;;
80854;SDS011;70272;49.222;-122.892;2023-12-29T04:52:16;2.50;;;1.33;;
80854;SDS011;70272;49.222;-122.892;2023-12-29T04:54:43;1.83;;;1.20;;
80854;SDS011;70272;49.222;-122.892;2023-12-29T04:57:09;2.50;;;1.20;;
80854;SDS011;70272;49.222;-122.892;2023-12-29T04:59:35;2.90;;;1.30;;
80854;SDS011;70272;49.222;-122.892;2023-12-29T05:02:01;3.05;;;1.20;;
80854;SDS011;70272;49.222;-122.892;2023-12-29T05:04:28;3.13;;;1.48;;
80854;SDS011;70272;49.222;-122.892;2023-12-29T05:06:54;2.13;;;1.10;;
80854;SDS011;70272;49.222;-122.892;2023-12-29T05:09:20;2.22;;;0.90;;
80854;SDS011;70272;49.222;-122.892;2023-12-29T05:11:47;1.90;;;1.02;;
80854;SDS011;70272;49.222;-122.892;2023-12-29T05:14:14;1.00;;;0.98;;
80854;SDS011;70272;49.222;-122.892;2023-12-29T05:16:43;1.65;;;1.42;;
80854;SDS011;70272;49.222;-122.892;2023-12-29T05:19:10;1.05;;;0.93;;
80854;SDS011;70272;49.222;-122.892;2023-12-29T05:21:36;1.77;;;1.27;;
80854;SDS011;70272;49.222;-122.892;2023-12-29T05:24:02;0.90;;;0.90;;
80854;SDS011;70272;49.222;-122.892;2023-12-29T05:26:30;2.67;;;1.30;;
80854;SDS011;70272;49.222;-122.892;2023-12-29T05:28:57;0.90;;;0.90;;
80854;SDS011;70272;49.222;-122.892;2023-12-29T05:31:23;1.48;;;1.23;;
80854;SDS011;70272;49.222;-122.892;2023-12-29T05:33:50;1.50;;;1.25;;
80854;SDS011;70272;49.222;-122.892;2023-12-29T05:36:16;2.28;;;1.00;;
80854;SDS011;70272;49.222;-122.892;2023-12-29T05:38:44;0.95;;;0.95;;
80854;SDS011;70272;49.222;-122.892;2023-12-29T05:41:15;1.60;;;0.95;;
80854;SDS011;70272;49.222;-122.892;2023-12-29T05:43:41;1.33;;;1.08;;
80854;SDS011;70272;49.222;-122.892;2023-12-29T05:46:11;1.70;;;0.93;;
80854;SDS011;70272;49.222;-122.892;2023-12-29T05:48:38;1.60;;;1.15;;
80854;SDS011;70272;49.222;-122.892;2023-12-29T05:51:08;0.55;;;0.55;;
80854;SDS011;70272;49.222;-122.892;2023-12-29T05:53:35;1.10;;;1.00;;
80854;SDS011;70272;49.222;-122.892;2023-12-29T05:56:02;1.35;;;1.00;;
80854;SDS011;70272;49.222;-122.892;2023-12-29T05:58:29;1.67;;;1.00;;
80854;SDS011;70272;49.222;-122.892;2023-12-29T06:00:55;1.55;;;1.27;;
80854;SDS011;70272;49.222;-122.892;2023-12-29T06:03:21;0.85;;;0.85;;
80854;SDS011;70272;49.222;-122.892;2023-12-29T06:05:48;1.02;;;0.55;;
80854;SDS011;70272;49.222;-122.892;2023-12-29T06:08:14;1.10;;;1.00;;
80854;SDS011;70272;49.222;-122.892;2023-12-29T06:10:40;0.70;;;0.70;;
80854;SDS011;70272;49.222;-122.892;2023-12-29T06:13:06;1.33;;;0.90;;
80854;SDS011;70272;49.222;-122.892;2023-12-29T06:15:33;2.53;;;1.27;;
80854;SDS011;70272;49.222;-122.892;2023-12-29T06:17:59;2.05;;;1.25;;
80854;SDS011;70272;49.222;-122.892;2023-12-29T06:20:26;1.05;;;0.77;;
80854;SDS011;70272;49.222;-122.892;2023-12-29T06:22:52;0.52;;;0.52;;
80854;SDS011;70272;49.222;-122.892;2023-12-29T06:25:19;0.68;;;0.68;;
80854;SDS011;70272;49.222;-122.892;2023-12-29T06:27:45;0.40;;;0.38;;
80854;SDS011;70272;49.222;-122.892;2023-12-29T06:30:11;0.60;;;0.60;;
80854;SDS011;70272;49.222;-122.892;2023-12-29T06:32:38;0.80;;;0.70;;
80854;SDS011;70272;49.222;-122.892;2023-12-29T06:35:07;1.92;;;0.70;;
80854;SDS011;70272;49.222;-122.892;2023-12-29T06:37:38;1.45;;;1.35;;
80854;SDS011;70272;49.222;-122.892;2023-12-29T06:40:06;0.57;;;0.57;;
80854;SDS011;70272;49.222;-122.892;2023-12-29T06:42:33;1.17;;;0.80;;
80854;SDS011;70272;49.222;-122.892;2023-12-29T06:44:59;0.50;;;0.50;;
80854;SDS011;70272;49.222;-122.892;2023-12-29T06:47:26;1.45;;;0.82;;
80854;SDS011;70272;49.222;-122.892;2023-12-29T06:49:53;2.33;;;1.15;;
80854;SDS011;70272;49.222;-122.892;2023-12-29T06:52:19;1.20;;;1.10;;
80854;SDS011;70272;49.222;-122.892;2023-12-29T06:54:45;1.20;;;1.10;;
80854;SDS011;70272;49.222;-122.892;2023-12-29T06:57:11;1.08;;;1.00;;
80854;SDS011;70272;49.222;-122.892;2023-12-29T06:59:40;2.47;;;1.15;;
80854;SDS011;70272;49.222;-122.892;2023-12-29T07:02:06;1.02;;;0.90;;
80854;SDS011;70272;49.222;-122.892;2023-12-29T07:04:32;1.92;;;1.00;;
80854;SDS011;70272;49.222;-122.892;2023-12-29T07:07:00;1.23;;;1.10;;
80854;SDS011;70272;49.222;-122.892;2023-12-29T07:09:29;1.77;;;1.27;;
80854;SDS011;70272;49.222;-122.892;2023-12-29T07:11:55;1.60;;;1.50;;
80854;SDS011;70272;49.222;-122.892;2023-12-29T07:14:22;1.85;;;1.15;;
80854;SDS011;70272;49.222;-122.892;2023-12-29T07:16:48;1.88;;;1.20;;
80854;SDS011;70272;49.222;-122.892;2023-12-29T07:19:14;2.55;;;1.20;;
80854;SDS011;70272;49.222;-122.892;2023-12-29T07:21:40;1.42;;;1.15;;
80854;SDS011;70272;49.222;-122.892;2023-12-29T07:24:06;1.80;;;1.15;;
80854;SDS011;70272;49.222;-122.892;2023-12-29T07:26:33;1.10;;;1.00;;
80854;SDS011;70272;49.222;-122.892;2023-12-29T07:28:59;1.75;;;1.30;;
80854;SDS011;70272;49.222;-122.892;2023-12-29T07:31:25;2.60;;;1.25;;
80854;SDS011;70272;49.222;-122.892;2023-12-29T07:33:52;2.38;;;1.25;;
80854;SDS011;70272;49.222;-122.892;2023-12-29T07:36:18;1.90;;;1.23;;
80854;SDS011;70272;49.222;-122.892;2023-12-29T07:38:44;1.35;;;1.20;;
80854;SDS011;70272;49.222;-122.892;2023-12-29T07:41:10;1.90;;;1.25;;
80854;SDS011;70272;49.222;-122.892;2023-12-29T07:43:37;1.80;;;1.30;;
80854;SDS011;70272;49.222;-122.892;2023-12-29T07:46:03;1.95;;;1.42;;
80854;SDS011;70272;49.222;-122.892;2023-12-29T07:48:29;2.10;;;1.30;;
80854;SDS011;70272;49.222;-122.892;2023-12-29T07:50:55;3.28;;;1.30;;
80854;SDS011;70272;49.222;-122.892;2023-12-29T07:53:24;2.85;;;1.30;;
80854;SDS011;70272;49.222;-122.892;2023-12-29T07:55:50;4.13;;;1.45;;
80854;SDS011;70272;49.222;-122.892;2023-12-29T07:58:18;2.55;;;1.95;;
80854;SDS011;70272;49.222;-122.892;2023-12-29T08:00:45;1.60;;;1.25;;
80854;SDS011;70272;49.222;-122.892;2023-12-29T08:03:12;2.63;;;1.30;;
80854;SDS011;70272;49.222;-122.892;2023-12-29T08:05:38;0.63;;;0.63;;
80854;SDS011;70272;49.222;-122.892;2023-12-29T08:08:05;1.20;;;0.98;;
80854;SDS011;70272;49.222;-122.892;2023-12-29T08:10:31;1.35;;;0.90;;
80854;SDS011;70272;49.222;-122.892;2023-12-29T08:12:57;1.30;;;0.88;;
80854;SDS011;70272;49.222;-122.892;2023-12-29T08:15:24;1.10;;;1.02;;
80854;SDS011;70272;49.222;-122.892;2023-12-29T08:17:50;1.23;;;1.10;;
80854;SDS011;70272;49.222;-122.892;2023-12-29T08:20:16;1.48;;;1.15;;
80854;SDS011;70272;49.222;-122.892;2023-12-29T08:22:42;1.13;;;1.02;;
80854;SDS011;70272;49.222;-122.892;2023-12-29T08:25:09;1.33;;;0.88;;
80854;SDS011;70272;49.222;-122.892;2023-12-29T08:27:35;1.70;;;1.42;;
80854;SDS011;70272;49.222;-122.892;2023-12-29T08:30:01;1.77;;;1.13;;
80854;SDS011;70272;49.222;-122.892;2023-12-29T08:32:27;1.02;;;1.02;;
80854;SDS011;70272;49.222;-122.892;2023-12-29T08:34:53;1.65;;;1.17;;
80854;SDS011;70272;49.222;-122.892;2023-12-29T08:37:21;1.67;;;1.10;;
80854;SDS011;70272;49.222;-122.892;2023-12-29T08:39:47;0.98;;;0.88;;
80854;SDS011;70272;49.222;-122.892;2023-12-29T08:42:13;0.90;;;0.90;;
80854;SDS011;70272;49.222;-122.892;2023-12-29T08:44:40;1.80;;;1.17;;
80854;SDS011;70272;49.222;-122.892;2023-12-29T08:47:07;1.45;;;0.80;;
80854;SDS011;70272;49.222;-122.892;2023-12-29T08:49:36;1.58;;;0.90;;
80854;SDS011;70272;49.222;-122.892;2023-12-29T08:52:03;2.20;;;1.08;;
80854;SDS011;70272;49.222;-122.892;2023-12-29T08:54:30;1.33;;;1.02;;
80854;SDS011;70272;49.222;-122.892;2023-12-29T08:56:56;1.20;;;1.10;;
80854;SDS011;70272;49.222;-122.892;2023-12-29T08:59:22;1.05;;;1.00;;
80854;SDS011;70272;49.222;-122.892;2023-12-29T09:01:48;1.48;;;0.70;;
80854;SDS011;70272;49.222;-122.892;2023-12-29T09:04:15;1.00;;;1.00;;
80854;SDS011;70272;49.222;-122.892;2023-12-29T09:06:42;1.02;;;1.00;;
80854;SDS011;70272;49.222;-122.892;2023-12-29T09:09:08;1.40;;;0.90;;
80854;SDS011;70272;49.222;-122.892;2023-12-29T09:11:38;2.10;;;1.50;;
80854;SDS011;70272;49.222;-122.892;2023-12-29T09:14:05;1.60;;;1.10;;
80854;SDS011;70272;49.222;-122.892;2023-12-29T09:16:31;1.25;;;1.10;;
80854;SDS011;70272;49.222;-122.892;2023-12-29T09:18:57;1.02;;;0.90;;
80854;SDS011;70272;49.222;-122.892;2023-12-29T09:21:24;1.02;;;0.90;;
80854;SDS011;70272;49.222;-122.892;2023-12-29T09:23:50;1.25;;;1.15;;
80854;SDS011;70272;49.222;-122.892;2023-12-29T09:26:17;1.15;;;0.88;;
80854;SDS011;70272;49.222;-122.892;2023-12-29T09:28:43;1.33;;;1.00;;
80854;SDS011;70272;49.222;-122.892;2023-12-29T09:31:10;1.70;;;0.90;;
80854;SDS011;70272;49.222;-122.892;2023-12-29T09:33:37;1.17;;;1.05;;
80854;SDS011;70272;49.222;-122.892;2023-12-29T09:36:03;0.82;;;0.82;;
80854;SDS011;70272;49.222;-122.892;2023-12-29T09:38:30;0.90;;;0.90;;
80854;SDS011;70272;49.222;-122.892;2023-12-29T09:41:03;1.02;;;0.98;;
80854;SDS011;70272;49.222;-122.892;2023-12-29T09:43:31;0.98;;;0.90;;
80854;SDS011;70272;49.222;-122.892;2023-12-29T09:45:58;3.00;;;1.45;;
80854;SDS011;70272;49.222;-122.892;2023-12-29T09:48:26;1.38;;;0.90;;
80854;SDS011;70272;49.222;-122.892;2023-12-29T09:50:52;1.67;;;0.88;;
80854;SDS011;70272;49.222;-122.892;2023-12-29T09:53:22;1.23;;;0.82;;
80854;SDS011;70272;49.222;-122.892;2023-12-29T09:55:49;0.60;;;0.60;;
80854;SDS011;70272;49.222;-122.892;2023-12-29T09:58:18;0.70;;;0.60;;
80854;SDS011;70272;49.222;-122.892;2023-12-29T10:00:46;0.70;;;0.70;;
80854;SDS011;70272;49.222;-122.892;2023-12-29T10:03:13;0.93;;;0.82;;
80854;SDS011;70272;49.222;-122.892;2023-12-29T10:05:39;1.80;;;0.80;;
80854;SDS011;70272;49.222;-122.892;2023-12-29T10:08:05;0.55;;;0.55;;
80854;SDS011;70272;49.222;-122.892;2023-12-29T10:10:33;1.35;;;1.00;;
80854;SDS011;70272;49.222;-122.892;2023-12-29T10:13:01;0.70;;;0.70;;
80854;SDS011;70272;49.222;-122.892;2023-12-29T10:15:49;3.50;;;1.02;;
80854;SDS011;70272;49.222;-122.892;2023-12-29T10:18:32;1.15;;;1.13;;
80854;SDS011;70272;49.222;-122.892;2023-12-29T10:23:47;1.23;;;1.13;;
80854;SDS011;70272;49.222;-122.892;2023-12-29T10:26:19;0.95;;;0.47;;
80854;SDS011;70272;49.222;-122.892;2023-12-29T10:28:46;0.57;;;0.57;;
80854;SDS011;70272;49.222;-122.892;2023-12-29T10:31:14;0.77;;;0.77;;
80854;SDS011;70272;49.222;-122.892;2023-12-29T10:33:44;1.45;;;0.90;;
80854;SDS011;70272;49.222;-122.892;2023-12-29T10:36:15;0.90;;;0.90;;
80854;SDS011;70272;49.222;-122.892;2023-12-29T10:38:42;0.80;;;0.80;;
80854;SDS011;70272;49.222;-122.892;2023-12-29T10:41:12;2.03;;;0.85;;
80854;SDS011;70272;49.222;-122.892;2023-12-29T10:43:44;2.22;;;1.30;;
80854;SDS011;70272;49.222;-122.892;2023-12-29T10:46:17;1.27;;;0.95;;
80854;SDS011;70272;49.222;-122.892;2023-12-29T10:48:44;1.63;;;0.75;;
80854;SDS011;70272;49.222;-122.892;2023-12-29T10:51:10;1.05;;;1.02;;
80854;SDS011;70272;49.222;-122.892;2023-12-29T10:53:37;0.70;;;0.70;;
80854;SDS011;70272;49.222;-122.892;2023-12-29T10:56:04;1.02;;;0.73;;
80854;SDS011;70272;49.222;-122.892;2023-12-29T10:58:45;1.10;;;1.00;;
80854;SDS011;70272;49.222;-122.892;2023-12-29T11:01:15;1.17;;;0.60;;
80854;SDS011;70272;49.222;-122.892;2023-12-29T11:03:44;1.65;;;0.52;;
80854;SDS011;70272;49.222;-122.892;2023-12-29T11:06:24;0.60;;;0.60;;
80854;SDS011;70272;49.222;-122.892;2023-12-29T11:08:50;1.23;;;0.63;;
80854;SDS011;70272;49.222;-122.892;2023-12-29T11:11:16;0.82;;;0.75;;
80854;SDS011;70272;49.222;-122.892;2023-12-29T11:13:43;1.55;;;0.88;;
80854;SDS011;70272;49.222;-122.892;2023-12-29T11:16:11;0.85;;;0.85;;
80854;SDS011;70272;49.222;-122.892;2023-12-29T11:18:38;1.67;;;1.10;;
80854;SDS011;70272;49.222;-122.892;2023-12-29T11:21:06;0.90;;;0.65;;
80854;SDS011;70272;49.222;-122.892;2023-12-29T11:23:34;2.97;;;1.13;;
80854;SDS011;70272;49.222;-122.892;2023-12-29T11:26:00;0.80;;;0.80;;
80854;SDS011;70272;49.222;-122.892;2023-12-29T11:28:26;1.55;;;0.93;;
80854;SDS011;70272;49.222;-122.892;2023-12-29T11:30:53;0.52;;;0.52;;
80854;SDS011;70272;49.222;-122.892;2023-12-29T11:33:34;1.02;;;0.77;;
80854;SDS011;70272;49.222;-122.892;2023-12-29T11:36:10;0.63;;;0.63;;
80854;SDS011;70272;49.222;-122.892;2023-12-29T11:38:54;0.60;;;0.57;;
80854;SDS011;70272;49.222;-122.892;2023-12-29T11:41:42;0.88;;;0.88;;
80854;SDS011;70272;49.222;-122.892;2023-12-29T11:44:27;0.40;;;0.40;;
80854;SDS011;70272;49.222;-122.892;2023-12-29T11:46:55;0.40;;;0.40;;
80854;SDS011;70272;49.222;-122.892;2023-12-29T11:49:25;0.50;;;0.50;;
80854;SDS011;70272;49.222;-122.892;2023-12-29T11:51:51;0.60;;;0.60;;
80854;SDS011;70272;49.222;-122.892;2023-12-29T11:54:21;0.30;;;0.30;;
80854;SDS011;70272;49.222;-122.892;2023-12-29T11:56:48;0.52;;;0.32;;
80854;SDS011;70272;49.222;-122.892;2023-12-29T12:01:47;0.55;;;0.30;;
80854;SDS011;70272;49.222;-122.892;2023-12-29T12:04:33;0.30;;;0.30;;
80854;SDS011;70272;49.222;-122.892;2023-12-29T12:07:07;0.52;;;0.13;;
80854;SDS011;70272;49.222;-122.892;2023-12-29T12:12:58;0.60;;;0.57;;
80854;SDS011;70272;49.222;-122.892;2023-12-29T12:17:57;0.68;;;0.68;;
80854;SDS011;70272;49.222;-122.892;2023-12-29T12:20:29;0.55;;;0.55;;
80854;SDS011;70272;49.222;-122.892;2023-12-29T12:25:26;0.80;;;0.55;;
80854;SDS011;70272;49.222;-122.892;2023-12-29T12:27:56;0.50;;;0.50;;
80854;SDS011;70272;49.222;-122.892;2023-12-29T12:30:22;1.55;;;0.77;;
80854;SDS011;70272;49.222;-122.892;2023-12-29T12:32:58;1.63;;;0.80;;
80854;SDS011;70272;49.222;-122.892;2023-12-29T12:35:25;0.93;;;0.77;;
80854;SDS011;70272;49.222;-122.892;2023-12-29T12:43:03;1.27;;;1.17;;
80854;SDS011;70272;49.222;-122.892;2023-12-29T12:45:33;1.15;;;0.90;;
80854;SDS011;70272;49.222;-122.892;2023-12-29T12:48:02;0.68;;;0.68;;
80854;SDS011;70272;49.222;-122.892;2023-12-29T12:50:35;1.10;;;0.65;;
80854;SDS011;70272;49.222;-122.892;2023-12-29T12:53:02;1.35;;;0.80;;
80854;SDS011;70272;49.222;-122.892;2023-12-29T12:55:33;0.70;;;0.60;;
80854;SDS011;70272;49.222;-122.892;2023-12-29T12:58:00;0.32;;;0.32;;
80854;SDS011;70272;49.222;-122.892;2023-12-29T13:00:27;1.08;;;1.00;;
80854;SDS011;70272;49.222;-122.892;2023-12-29T13:02:54;0.70;;;0.70;;
80854;SDS011;70272;49.222;-122.892;2023-12-29T13:05:20;0.60;;;0.60;;
80854;SDS011;70272;49.222;-122.892;2023-12-29T13:07:47;0.70;;;0.70;;
80854;SDS011;70272;49.222;-122.892;2023-12-29T13:10:14;2.05;;;1.05;;
80854;SDS011;70272;49.222;-122.892;2023-12-29T13:12:40;0.50;;;0.50;;
80854;SDS011;70272;49.222;-122.892;2023-12-29T13:15:07;1.23;;;0.70;;
80854;SDS011;70272;49.222;-122.892;2023-12-29T13:17:34;0.73;;;0.73;;
80854;SDS011;70272;49.222;-122.892;2023-12-29T13:20:00;0.90;;;0.90;;
80854;SDS011;70272;49.222;-122.892;2023-12-29T13:22:27;0.57;;;0.30;;
80854;SDS011;70272;49.222;-122.892;2023-12-29T13:24:54;2.63;;;1.10;;
80854;SDS011;70272;49.222;-122.892;2023-12-29T13:27:20;0.73;;;0.68;;
80854;SDS011;70272;49.222;-122.892;2023-12-29T13:29:47;0.75;;;0.70;;
80854;SDS011;70272;49.222;-122.892;2023-12-29T13:37:30;0.90;;;0.80;;
80854;SDS011;70272;49.222;-122.892;2023-12-29T13:40:42;1.10;;;1.00;;
80854;SDS011;70272;49.222;-122.892;2023-12-29T13:43:01;0.63;;;0.63;;
80854;SDS011;70272;49.222;-122.892;2023-12-29T13:45:31;1.13;;;1.10;;
80854;SDS011;70272;49.222;-122.892;2023-12-29T13:47:58;1.05;;;0.95;;
80854;SDS011;70272;49.222;-122.892;2023-12-29T13:50:25;0.60;;;0.60;;
80854;SDS011;70272;49.222;-122.892;2023-12-29T13:52:51;0.50;;;0.50;;
80854;SDS011;70272;49.222;-122.892;2023-12-29T13:55:21;1.10;;;0.80;;
80854;SDS011;70272;49.222;-122.892;2023-12-29T13:57:48;1.00;;;0.95;;
80854;SDS011;70272;49.222;-122.892;2023-12-29T14:00:15;1.10;;;1.00;;
80854;SDS011;70272;49.222;-122.892;2023-12-29T14:02:47;1.08;;;0.98;;
80854;SDS011;70272;49.222;-122.892;2023-12-29T14:05:23;1.02;;;0.93;;
80854;SDS011;70272;49.222;-122.892;2023-12-29T14:07:55;0.82;;;0.82;;
80854;SDS011;70272;49.222;-122.892;2023-12-29T14:13:10;0.73;;;0.73;;
80854;SDS011;70272;49.222;-122.892;2023-12-29T14:15:39;1.60;;;1.10;;
80854;SDS011;70272;49.222;-122.892;2023-12-29T14:20:38;0.60;;;0.60;;
80854;SDS011;70272;49.222;-122.892;2023-12-29T14:23:08;0.65;;;0.65;;
80854;SDS011;70272;49.222;-122.892;2023-12-29T14:25:36;1.30;;;0.80;;
80854;SDS011;70272;49.222;-122.892;2023-12-29T14:28:15;0.47;;;0.47;;
80854;SDS011;70272;49.222;-122.892;2023-12-29T14:30:43;0.52;;;0.52;;
80854;SDS011;70272;49.222;-122.892;2023-12-29T14:33:09;0.70;;;0.65;;
80854;SDS011;70272;49.222;-122.892;2023-12-29T14:35:36;0.77;;;0.50;;
80854;SDS011;70272;49.222;-122.892;2023-12-29T14:38:02;1.30;;;1.20;;
80854;SDS011;70272;49.222;-122.892;2023-12-29T14:40:29;3.25;;;1.40;;
80854;SDS011;70272;49.222;-122.892;2023-12-29T14:42:55;1.63;;;1.10;;
80854;SDS011;70272;49.222;-122.892;2023-12-29T14:45:22;2.83;;;1.70;;